Pays
Station

 

Conditions  météo  pour  Rosario Aerodrome  -  Argentine    Argentine

  
29 °C
    
 
 

METAR pour Rosario Aerodrome :

SAAR 212200Z 05007KT 9999 FEW030 29/19 Q1009

 

Voici le bulletin pour Rosario Aerodrome - Argentine.
 
Le bulletin a été fait il y a 53 minutes, à 22:00 UTC .
Le vent soufflait à la vitesse de 3.6 mètres par seconde de Nord-est (050°).
 
La température était de 29 °C, avec un point de rosée à 19 °C.
La température ressentie était de 30 °C.
 
La pression atmosphérique était de 1009 hPa.
L'humidité relative était de 54.9%.
 
Il y avait 1 à 2/8ème de nébulosité à une hauteur de 914 mètres.
 
La visibilité globale était de supérieure à 10 kilomètres.
 

 
 
 

Pays :   A   B   C   D   E   F   G   H   I   J   K   L   M   N   O   P   Q   R   S   T   U   V   W   Y   Z

 

Partenaires :  Info Météo avec Met'info
Météo Marine avec MeteoMarine.net
Infos Site  |  Infos Légales  |  Crédits  |  Confidentialité
Contactez-nous  |  Ajouter aux favoris
© 2013-2019 METAR - Tous droits réservés